sensor_id;sensor_type;location;lat;lon;timestamp;pressure;altitude;pressure_sealevel;temperature;humidity
10824;BME280;39116;59.332;18.034;2023-08-30T00:01:31;100334.41;;;16.80;100.00
10824;BME280;39116;59.332;18.034;2023-08-30T00:03:53;100364.84;;;16.92;100.00
10824;BME280;39116;59.332;18.034;2023-08-30T00:06:15;100359.66;;;16.89;100.00
10824;BME280;39116;59.332;18.034;2023-08-30T00:08:38;100356.03;;;16.93;100.00
10824;BME280;39116;59.332;18.034;2023-08-30T00:11:00;100348.97;;;16.95;100.00
10824;BME280;39116;59.332;18.034;2023-08-30T00:13:23;100358.78;;;16.89;100.00
10824;BME280;39116;59.332;18.034;2023-08-30T00:15:45;100339.63;;;16.84;100.00
10824;BME280;39116;59.332;18.034;2023-08-30T00:18:07;100351.00;;;16.83;100.00
10824;BME280;39116;59.332;18.034;2023-08-30T00:20:29;100358.06;;;16.80;100.00
10824;BME280;39116;59.332;18.034;2023-08-30T00:22:51;100344.75;;;16.88;100.00
10824;BME280;39116;59.332;18.034;2023-08-30T00:25:15;100254.56;;;16.49;100.00
10824;BME280;39116;59.332;18.034;2023-08-30T00:27:37;100330.56;;;16.95;100.00
10824;BME280;39116;59.332;18.034;2023-08-30T00:29:58;100347.91;;;16.65;100.00
10824;BME280;39116;59.332;18.034;2023-08-30T00:32:20;100344.38;;;16.66;100.00
10824;BME280;39116;59.332;18.034;2023-08-30T00:34:43;100345.25;;;16.67;100.00
10824;BME280;39116;59.332;18.034;2023-08-30T00:37:04;100341.28;;;16.49;100.00
10824;BME280;39116;59.332;18.034;2023-08-30T00:39:26;100336.50;;;16.66;100.00
10824;BME280;39116;59.332;18.034;2023-08-30T00:41:50;100330.47;;;16.61;100.00
10824;BME280;39116;59.332;18.034;2023-08-30T00:44:11;100339.09;;;16.29;100.00
10824;BME280;39116;59.332;18.034;2023-08-30T00:46:34;100347.34;;;16.12;100.00
10824;BME280;39116;59.332;18.034;2023-08-30T00:48:56;100346.69;;;16.42;100.00
10824;BME280;39116;59.332;18.034;2023-08-30T00:51:18;100350.22;;;16.40;100.00
10824;BME280;39116;59.332;18.034;2023-08-30T00:53:40;100335.88;;;16.55;100.00
10824;BME280;39116;59.332;18.034;2023-08-30T00:56:02;100339.16;;;16.65;100.00
10824;BME280;39116;59.332;18.034;2023-08-30T00:58:26;100295.72;;;16.50;100.00
10824;BME280;39116;59.332;18.034;2023-08-30T01:00:48;100206.06;;;15.89;100.00
10824;BME280;39116;59.332;18.034;2023-08-30T01:03:10;100332.13;;;16.65;100.00
10824;BME280;39116;59.332;18.034;2023-08-30T01:05:32;100344.44;;;16.63;100.00
10824;BME280;39116;59.332;18.034;2023-08-30T01:07:54;100332.38;;;16.54;100.00
10824;BME280;39116;59.332;18.034;2023-08-30T01:10:16;100313.00;;;16.60;100.00
10824;BME280;39116;59.332;18.034;2023-08-30T01:12:42;100308.22;;;16.76;100.00
10824;BME280;39116;59.332;18.034;2023-08-30T01:15:10;100307.41;;;16.74;100.00
10824;BME280;39116;59.332;18.034;2023-08-30T01:17:32;100331.06;;;16.74;100.00
10824;BME280;39116;59.332;18.034;2023-08-30T01:19:59;100346.75;;;16.77;100.00
10824;BME280;39116;59.332;18.034;2023-08-30T01:22:38;100350.81;;;16.92;100.00
10824;BME280;39116;59.332;18.034;2023-08-30T01:25:12;100352.38;;;16.99;100.00
10824;BME280;39116;59.332;18.034;2023-08-30T01:27:40;100336.53;;;17.02;100.00
10824;BME280;39116;59.332;18.034;2023-08-30T01:30:04;100329.53;;;17.01;100.00
10824;BME280;39116;59.332;18.034;2023-08-30T01:32:29;100332.84;;;17.09;100.00
10824;BME280;39116;59.332;18.034;2023-08-30T01:34:51;100338.03;;;17.12;100.00
10824;BME280;39116;59.332;18.034;2023-08-30T01:37:14;100330.88;;;16.82;100.00
10824;BME280;39116;59.332;18.034;2023-08-30T01:39:37;100331.06;;;16.74;100.00
10824;BME280;39116;59.332;18.034;2023-08-30T01:42:01;100330.03;;;16.79;100.00
10824;BME280;39116;59.332;18.034;2023-08-30T01:44:26;100330.03;;;16.79;100.00
10824;BME280;39116;59.332;18.034;2023-08-30T01:46:49;100324.88;;;16.76;100.00
10824;BME280;39116;59.332;18.034;2023-08-30T01:49:11;100337.31;;;16.68;100.00
10824;BME280;39116;59.332;18.034;2023-08-30T01:51:34;100345.25;;;16.67;100.00
10824;BME280;39116;59.332;18.034;2023-08-30T01:53:57;100348.59;;;16.73;100.00
10824;BME280;39116;59.332;18.034;2023-08-30T01:56:19;100353.84;;;16.73;100.00
10824;BME280;39116;59.332;18.034;2023-08-30T01:58:41;100354.03;;;16.66;100.00
10824;BME280;39116;59.332;18.034;2023-08-30T02:01:05;100338.75;;;16.44;100.00
10824;BME280;39116;59.332;18.034;2023-08-30T02:03:27;100327.25;;;16.50;100.00
10824;BME280;39116;59.332;18.034;2023-08-30T02:05:57;100218.13;;;15.97;100.00
10824;BME280;39116;59.332;18.034;2023-08-30T02:08:26;100346.00;;;16.72;100.00
10824;BME280;39116;59.332;18.034;2023-08-30T02:10:56;100337.25;;;16.71;100.00
10824;BME280;39116;59.332;18.034;2023-08-30T02:13:21;100332.75;;;16.76;100.00
10824;BME280;39116;59.332;18.034;2023-08-30T02:15:47;100330.13;;;16.76;100.00
10824;BME280;39116;59.332;18.034;2023-08-30T02:18:11;100339.16;;;16.65;100.00
10824;BME280;39116;59.332;18.034;2023-08-30T02:20:33;100318.59;;;16.45;100.00
10824;BME280;39116;59.332;18.034;2023-08-30T02:22:58;100335.25;;;16.44;100.00
10824;BME280;39116;59.332;18.034;2023-08-30T02:25:20;100356.91;;;16.55;100.00
10824;BME280;39116;59.332;18.034;2023-08-30T02:27:44;100344.44;;;16.63;100.00
10824;BME280;39116;59.332;18.034;2023-08-30T02:30:07;100340.00;;;16.65;100.00
10824;BME280;39116;59.332;18.034;2023-08-30T02:32:29;100347.03;;;16.65;100.00
10824;BME280;39116;59.332;18.034;2023-08-30T02:34:52;100215.56;;;15.94;100.00
10824;BME280;39116;59.332;18.034;2023-08-30T02:37:14;100348.69;;;16.69;100.00
10824;BME280;39116;59.332;18.034;2023-08-30T02:39:35;100335.88;;;16.55;100.00
10824;BME280;39116;59.332;18.034;2023-08-30T02:41:57;100343.69;;;16.19;100.00
10824;BME280;39116;59.332;18.034;2023-08-30T02:44:19;100320.00;;;15.80;100.00
10824;BME280;39116;59.332;18.034;2023-08-30T02:46:41;100353.16;;;16.26;100.00
10824;BME280;39116;59.332;18.034;2023-08-30T02:49:03;100346.94;;;16.30;100.00
10824;BME280;39116;59.332;18.034;2023-08-30T02:51:27;100343.28;;;16.37;100.00
10824;BME280;39116;59.332;18.034;2023-08-30T02:53:48;100348.16;;;16.15;100.00
10824;BME280;39116;59.332;18.034;2023-08-30T02:56:10;100342.09;;;16.12;100.00
10824;BME280;39116;59.332;18.034;2023-08-30T02:58:32;100340.34;;;16.11;100.00
10824;BME280;39116;59.332;18.034;2023-08-30T03:00:54;100339.69;;;16.01;100.00
10824;BME280;39116;59.332;18.034;2023-08-30T03:03:16;100329.53;;;16.26;100.00
10824;BME280;39116;59.332;18.034;2023-08-30T03:05:38;100225.78;;;15.64;100.00
10824;BME280;39116;59.332;18.034;2023-08-30T03:08:02;100352.41;;;16.21;100.00
10824;BME280;39116;59.332;18.034;2023-08-30T03:10:24;100334.91;;;16.20;100.00
10824;BME280;39116;59.332;18.034;2023-08-30T03:12:46;100328.59;;;16.29;100.00
10824;BME280;39116;59.332;18.034;2023-08-30T03:15:08;100323.16;;;16.36;100.00
10824;BME280;39116;59.332;18.034;2023-08-30T03:17:30;100321.25;;;16.43;100.00
10824;BME280;39116;59.332;18.034;2023-08-30T03:19:52;100328.50;;;16.33;100.00
10824;BME280;39116;59.332;18.034;2023-08-30T03:22:14;100315.47;;;16.27;100.00
10824;BME280;39116;59.332;18.034;2023-08-30T03:24:38;100306.66;;;16.31;100.00
10824;BME280;39116;59.332;18.034;2023-08-30T03:27:00;100303.84;;;16.39;100.00
10824;BME280;39116;59.332;18.034;2023-08-30T03:29:21;100303.31;;;16.23;100.00
10824;BME280;39116;59.332;18.034;2023-08-30T03:31:43;100289.50;;;16.15;100.00
10824;BME280;39116;59.332;18.034;2023-08-30T03:34:05;100283.53;;;16.08;100.00
10824;BME280;39116;59.332;18.034;2023-08-30T03:36:27;100311.22;;;15.81;100.00
10824;BME280;39116;59.332;18.034;2023-08-30T03:38:49;100316.03;;;16.02;100.00
10824;BME280;39116;59.332;18.034;2023-08-30T03:41:13;100317.22;;;15.86;100.00
10824;BME280;39116;59.332;18.034;2023-08-30T03:43:35;100313.28;;;16.09;100.00
10824;BME280;39116;59.332;18.034;2023-08-30T03:45:58;100320.56;;;15.94;100.00
10824;BME280;39116;59.332;18.034;2023-08-30T03:48:20;100316.28;;;15.90;100.00
10824;BME280;39116;59.332;18.034;2023-08-30T03:50:42;100312.84;;;15.88;100.00
10824;BME280;39116;59.332;18.034;2023-08-30T03:53:03;100307.00;;;15.72;100.00
10824;BME280;39116;59.332;18.034;2023-08-30T03:55:25;100304.41;;;15.71;100.00
10824;BME280;39116;59.332;18.034;2023-08-30T03:57:49;100307.22;;;15.61;100.00
10824;BME280;39116;59.332;18.034;2023-08-30T04:00:11;100304.59;;;15.61;100.00
10824;BME280;39116;59.332;18.034;2023-08-30T04:02:33;100291.56;;;15.55;100.00
10824;BME280;39116;59.332;18.034;2023-08-30T04:04:55;100296.44;;;15.74;100.00
10824;BME280;39116;59.332;18.034;2023-08-30T04:07:17;100313.00;;;15.79;100.00
10824;BME280;39116;59.332;18.034;2023-08-30T04:09:39;100306.09;;;15.75;100.00
10824;BME280;39116;59.332;18.034;2023-08-30T04:12:01;100310.09;;;15.93;100.00
10824;BME280;39116;59.332;18.034;2023-08-30T04:14:26;100306.22;;;16.11;100.00
10824;BME280;39116;59.332;18.034;2023-08-30T04:16:48;100306.69;;;15.89;100.00
10824;BME280;39116;59.332;18.034;2023-08-30T04:19:10;100305.34;;;15.66;100.00
10824;BME280;39116;59.332;18.034;2023-08-30T04:21:32;100304.41;;;15.71;100.00
10824;BME280;39116;59.332;18.034;2023-08-30T04:23:54;100293.00;;;15.72;100.00
10824;BME280;39116;59.332;18.034;2023-08-30T04:26:16;100284.66;;;15.96;100.00
10824;BME280;39116;59.332;18.034;2023-08-30T04:28:38;100276.81;;;15.95;100.00
10824;BME280;39116;59.332;18.034;2023-08-30T04:31:01;100277.53;;;16.01;100.00
10824;BME280;39116;59.332;18.034;2023-08-30T04:33:23;100271.59;;;15.93;100.00
10824;BME280;39116;59.332;18.034;2023-08-30T04:35:50;100285.97;;;16.16;100.00
10824;BME280;39116;59.332;18.034;2023-08-30T04:38:12;100285.38;;;16.03;100.00
10824;BME280;39116;59.332;18.034;2023-08-30T04:40:34;100286.19;;;16.07;100.00
10824;BME280;39116;59.332;18.034;2023-08-30T04:42:56;100279.13;;;16.09;100.00
10824;BME280;39116;59.332;18.034;2023-08-30T04:45:18;100280.06;;;16.06;100.00
10824;BME280;39116;59.332;18.034;2023-08-30T04:47:41;100271.03;;;16.18;100.00
10824;BME280;39116;59.332;18.034;2023-08-30T04:50:06;100269.13;;;16.26;100.00
10824;BME280;39116;59.332;18.034;2023-08-30T04:52:28;100271.63;;;16.31;100.00
10824;BME280;39116;59.332;18.034;2023-08-30T04:54:50;100269.03;;;16.29;100.00
10824;BME280;39116;59.332;18.034;2023-08-30T04:57:12;100271.75;;;16.26;100.00
10824;BME280;39116;59.332;18.034;2023-08-30T04:59:35;100270.16;;;16.19;100.00
10824;BME280;39116;59.332;18.034;2023-08-30T05:01:56;100261.88;;;16.36;100.00
10824;BME280;39116;59.332;18.034;2023-08-30T05:04:20;100266.22;;;16.38;100.00
10824;BME280;39116;59.332;18.034;2023-08-30T05:06:42;100265.50;;;16.32;100.00
10824;BME280;39116;59.332;18.034;2023-08-30T05:09:03;100277.78;;;16.31;100.00
10824;BME280;39116;59.332;18.034;2023-08-30T05:11:25;100270.88;;;16.26;100.00
10824;BME280;39116;59.332;18.034;2023-08-30T05:13:47;100265.50;;;16.32;100.00
10824;BME280;39116;59.332;18.034;2023-08-30T05:16:09;100152.59;;;15.52;100.00
10824;BME280;39116;59.332;18.034;2023-08-30T05:18:31;100265.47;;;16.33;100.00
10824;BME280;39116;59.332;18.034;2023-08-30T05:20:54;100264.25;;;16.08;100.00
10824;BME280;39116;59.332;18.034;2023-08-30T05:23:16;100246.28;;;16.30;100.00
10824;BME280;39116;59.332;18.034;2023-08-30T05:25:38;100249.22;;;16.16;100.00
10824;BME280;39116;59.332;18.034;2023-08-30T05:28:00;100254.31;;;16.22;100.00
10824;BME280;39116;59.332;18.034;2023-08-30T05:30:22;100252.03;;;16.08;100.00
10824;BME280;39116;59.332;18.034;2023-08-30T05:32:44;100250.38;;;16.41;100.00
10824;BME280;39116;59.332;18.034;2023-08-30T05:35:06;100122.28;;;15.81;100.00
10824;BME280;39116;59.332;18.034;2023-08-30T05:37:30;100229.22;;;16.48;100.00
10824;BME280;39116;59.332;18.034;2023-08-30T05:39:52;100238.38;;;16.31;100.00
10824;BME280;39116;59.332;18.034;2023-08-30T05:42:14;100248.09;;;15.43;100.00
10824;BME280;39116;59.332;18.034;2023-08-30T05:44:36;100243.56;;;16.33;100.00
10824;BME280;39116;59.332;18.034;2023-08-30T05:46:58;100228.94;;;16.22;100.00
10824;BME280;39116;59.332;18.034;2023-08-30T05:49:20;100226.84;;;16.37;100.00
10824;BME280;39116;59.332;18.034;2023-08-30T05:51:42;100227.88;;;16.31;100.00
10824;BME280;39116;59.332;18.034;2023-08-30T05:54:05;100215.88;;;16.19;100.00
10824;BME280;39116;59.332;18.034;2023-08-30T05:56:27;100224.34;;;16.31;100.00
10824;BME280;39116;59.332;18.034;2023-08-30T05:58:49;100231.91;;;16.07;100.00
10824;BME280;39116;59.332;18.034;2023-08-30T06:01:11;100245.81;;;16.11;100.00
10824;BME280;39116;59.332;18.034;2023-08-30T06:03:33;100231.94;;;16.43;100.00
10824;BME280;39116;59.332;18.034;2023-08-30T06:05:55;100234.34;;;16.52;100.00
10824;BME280;39116;59.332;18.034;2023-08-30T06:08:17;100248.34;;;16.17;100.00
10824;BME280;39116;59.332;18.034;2023-08-30T06:10:40;100238.44;;;16.28;100.00
10824;BME280;39116;59.332;18.034;2023-08-30T06:13:03;100232.94;;;16.73;100.00
10824;BME280;39116;59.332;18.034;2023-08-30T06:15:25;100231.28;;;16.71;100.00
10824;BME280;39116;59.332;18.034;2023-08-30T06:17:47;100231.41;;;16.29;100.00
10824;BME280;39116;59.332;18.034;2023-08-30T06:20:09;100233.19;;;16.28;100.00
10824;BME280;39116;59.332;18.034;2023-08-30T06:22:31;100222.41;;;16.39;100.00
10824;BME280;39116;59.332;18.034;2023-08-30T06:24:53;100217.25;;;16.34;100.00
10824;BME280;39116;59.332;18.034;2023-08-30T06:27:17;100222.41;;;16.39;100.00
10824;BME280;39116;59.332;18.034;2023-08-30T06:29:39;100211.72;;;16.47;100.00
10824;BME280;39116;59.332;18.034;2023-08-30T06:32:00;100209.22;;;16.42;100.00
10824;BME280;39116;59.332;18.034;2023-08-30T06:34:22;100167.28;;;16.37;100.00
10824;BME280;39116;59.332;18.034;2023-08-30T06:36:45;100194.44;;;16.36;100.00
10824;BME280;39116;59.332;18.034;2023-08-30T06:39:07;100202.72;;;16.57;100.00
10824;BME280;39116;59.332;18.034;2023-08-30T06:41:29;100186.97;;;16.55;100.00
10824;BME280;39116;59.332;18.034;2023-08-30T06:43:52;100166.47;;;16.35;100.00
10824;BME280;39116;59.332;18.034;2023-08-30T06:46:14;100175.50;;;16.58;100.00
10824;BME280;39116;59.332;18.034;2023-08-30T06:48:36;100176.22;;;16.65;100.00
10824;BME280;39116;59.332;18.034;2023-08-30T06:50:58;100183.28;;;16.63;100.00
10824;BME280;39116;59.332;18.034;2023-08-30T06:53:20;100173.31;;;16.75;100.00
10824;BME280;39116;59.332;18.034;2023-08-30T06:55:42;100174.56;;;17.58;100.00
10824;BME280;39116;59.332;18.034;2023-08-30T06:58:05;100191.91;;;17.02;100.00
10824;BME280;39116;59.332;18.034;2023-08-30T07:00:28;100181.13;;;16.78;100.00
10824;BME280;39116;59.332;18.034;2023-08-30T07:02:50;100174.88;;;16.50;100.00
10824;BME280;39116;59.332;18.034;2023-08-30T07:05:12;100167.56;;;17.27;100.00
10824;BME280;39116;59.332;18.034;2023-08-30T07:07:34;100138.56;;;15.95;100.00
10824;BME280;39116;59.332;18.034;2023-08-30T07:09:56;100174.66;;;16.57;100.00
10824;BME280;39116;59.332;18.034;2023-08-30T07:12:18;100178.41;;;16.47;100.00
10824;BME280;39116;59.332;18.034;2023-08-30T07:14:39;100173.22;;;16.46;100.00
10824;BME280;39116;59.332;18.034;2023-08-30T07:17:03;100175.72;;;16.50;100.00
10824;BME280;39116;59.332;18.034;2023-08-30T07:19:25;100174.63;;;16.59;100.00
10824;BME280;39116;59.332;18.034;2023-08-30T07:21:47;100180.69;;;16.61;100.00
10824;BME280;39116;59.332;18.034;2023-08-30T07:24:09;100186.63;;;16.69;100.00
10824;BME280;39116;59.332;18.034;2023-08-30T07:26:31;100182.94;;;16.76;100.00
10824;BME280;39116;59.332;18.034;2023-08-30T07:28:53;100184.31;;;16.57;100.00
10824;BME280;39116;59.332;18.034;2023-08-30T07:31:15;100179.63;;;16.68;100.00
10824;BME280;39116;59.332;18.034;2023-08-30T07:33:40;100184.75;;;16.74;100.00
10824;BME280;39116;59.332;18.034;2023-08-30T07:36:02;100183.72;;;16.46;100.00
10824;BME280;39116;59.332;18.034;2023-08-30T07:38:25;100181.16;;;16.42;100.00
10824;BME280;39116;59.332;18.034;2023-08-30T07:40:47;100050.38;;;15.88;100.00
10824;BME280;39116;59.332;18.034;2023-08-30T07:43:09;100167.25;;;16.73;100.00
10824;BME280;39116;59.332;18.034;2023-08-30T07:45:30;100176.94;;;16.71;100.00
10824;BME280;39116;59.332;18.034;2023-08-30T07:47:52;100167.31;;;16.70;100.00
10824;BME280;39116;59.332;18.034;2023-08-30T07:50:16;100174.03;;;16.82;100.00
10824;BME280;39116;59.332;18.034;2023-08-30T07:52:38;100181.06;;;16.82;100.00
10824;BME280;39116;59.332;18.034;2023-08-30T07:55:00;100168.88;;;16.77;100.00
10824;BME280;39116;59.332;18.034;2023-08-30T07:57:22;100168.81;;;16.80;100.00
10824;BME280;39116;59.332;18.034;2023-08-30T07:59:44;100165.88;;;16.93;100.00
10824;BME280;39116;59.332;18.034;2023-08-30T08:02:06;100164.94;;;16.94;100.00
10824;BME280;39116;59.332;18.034;2023-08-30T08:04:28;100153.34;;;16.68;100.00
10824;BME280;39116;59.332;18.034;2023-08-30T08:06:52;100149.03;;;17.00;100.00
10824;BME280;39116;59.332;18.034;2023-08-30T08:09:14;100156.69;;;17.08;100.00
10824;BME280;39116;59.332;18.034;2023-08-30T08:11:36;100150.91;;;16.95;100.00
10824;BME280;39116;59.332;18.034;2023-08-30T08:13:58;100146.69;;;17.21;100.00
10824;BME280;39116;59.332;18.034;2023-08-30T08:16:19;100129.69;;;17.01;100.00
10824;BME280;39116;59.332;18.034;2023-08-30T08:18:41;100140.91;;;17.39;100.00
10824;BME280;39116;59.332;18.034;2023-08-30T08:21:03;100142.94;;;17.29;100.00
10824;BME280;39116;59.332;18.034;2023-08-30T08:23:27;100139.69;;;17.21;100.00
10824;BME280;39116;59.332;18.034;2023-08-30T08:25:49;100139.53;;;17.26;100.00
10824;BME280;39116;59.332;18.034;2023-08-30T08:28:10;100130.25;;;17.42;100.00
10824;BME280;39116;59.332;18.034;2023-08-30T08:30:32;100128.00;;;17.60;100.00
10824;BME280;39116;59.332;18.034;2023-08-30T08:32:55;100133.72;;;17.44;100.00
10824;BME280;39116;59.332;18.034;2023-08-30T08:35:19;100145.13;;;17.13;100.00
10824;BME280;39116;59.332;18.034;2023-08-30T08:37:41;100135.44;;;17.45;100.00
10824;BME280;39116;59.332;18.034;2023-08-30T08:40:05;100142.97;;;17.28;100.00
10824;BME280;39116;59.332;18.034;2023-08-30T08:42:29;100135.72;;;17.36;100.00
10824;BME280;39116;59.332;18.034;2023-08-30T08:44:51;100137.94;;;17.50;100.00
10824;BME280;39116;59.332;18.034;2023-08-30T08:47:15;100136.81;;;17.59;100.00
10824;BME280;39116;59.332;18.034;2023-08-30T08:49:38;100104.91;;;18.49;100.00
10824;BME280;39116;59.332;18.034;2023-08-30T08:52:00;100128.28;;;18.07;100.00
10824;BME280;39116;59.332;18.034;2023-08-30T08:54:23;100121.75;;;17.92;100.00
10824;BME280;39116;59.332;18.034;2023-08-30T08:56:48;100120.38;;;18.07;100.00
10824;BME280;39116;59.332;18.034;2023-08-30T08:59:10;100106.97;;;18.66;100.00
10824;BME280;39116;59.332;18.034;2023-08-30T09:01:33;100116.84;;;18.35;100.00
10824;BME280;39116;59.332;18.034;2023-08-30T09:03:56;100132.56;;;18.38;100.00
10824;BME280;39116;59.332;18.034;2023-08-30T09:06:18;100118.13;;;18.73;100.00
10824;BME280;39116;59.332;18.034;2023-08-30T09:08:40;100114.78;;;18.93;100.00
10824;BME280;39116;59.332;18.034;2023-08-30T09:11:02;100119.41;;;18.88;100.00
10824;BME280;39116;59.332;18.034;2023-08-30T09:13:26;100119.00;;;18.74;100.00
10824;BME280;39116;59.332;18.034;2023-08-30T09:15:48;100113.75;;;18.48;100.00
10824;BME280;39116;59.332;18.034;2023-08-30T09:18:15;100104.75;;;18.79;100.00
10824;BME280;39116;59.332;18.034;2023-08-30T09:20:37;100115.19;;;18.82;100.00
10824;BME280;39116;59.332;18.034;2023-08-30T09:22:59;100106.13;;;18.64;100.00
10824;BME280;39116;59.332;18.034;2023-08-30T09:25:24;100120.16;;;18.66;100.00
10824;BME280;39116;59.332;18.034;2023-08-30T09:27:46;100117.44;;;18.68;100.00
10824;BME280;39116;59.332;18.034;2023-08-30T09:30:11;100115.25;;;18.81;100.00
10824;BME280;39116;59.332;18.034;2023-08-30T09:32:38;100116.09;;;18.31;100.00
10824;BME280;39116;59.332;18.034;2023-08-30T09:35:04;100119.44;;;18.61;100.00
10824;BME280;39116;59.332;18.034;2023-08-30T09:37:26;100121.84;;;18.67;100.00
10824;BME280;39116;59.332;18.034;2023-08-30T09:39:51;100125.47;;;18.90;100.00
10824;BME280;39116;59.332;18.034;2023-08-30T09:42:16;100123.31;;;19.01;100.00
10824;BME280;39116;59.332;18.034;2023-08-30T09:44:38;100125.84;;;19.28;100.00
10824;BME280;39116;59.332;18.034;2023-08-30T09:47:03;100117.34;;;19.20;100.00
10824;BME280;39116;59.332;18.034;2023-08-30T09:49:26;100116.94;;;19.07;100.00
10824;BME280;39116;59.332;18.034;2023-08-30T09:51:49;100121.78;;;19.41;100.00
10824;BME280;39116;59.332;18.034;2023-08-30T09:54:16;100104.53;;;19.56;100.00
10824;BME280;39116;59.332;18.034;2023-08-30T09:56:38;100110.63;;;19.35;100.00
10824;BME280;39116;59.332;18.034;2023-08-30T09:59:02;100107.16;;;19.56;100.00
10824;BME280;39116;59.332;18.034;2023-08-30T10:01:25;100119.97;;;18.96;100.00
10824;BME280;39116;59.332;18.034;2023-08-30T10:03:50;100097.72;;;19.27;100.00
10824;BME280;39116;59.332;18.034;2023-08-30T10:06:13;100098.16;;;19.84;100.00
10824;BME280;39116;59.332;18.034;2023-08-30T10:08:36;100098.63;;;19.50;100.00
10824;BME280;39116;59.332;18.034;2023-08-30T10:11:00;100098.38;;;19.79;100.00
10824;BME280;39116;59.332;18.034;2023-08-30T10:13:22;100105.63;;;19.51;100.00
10824;BME280;39116;59.332;18.034;2023-08-30T10:15:45;100100.53;;;19.46;100.00
10824;BME280;39116;59.332;18.034;2023-08-30T10:18:11;100100.84;;;19.82;100.00
10824;BME280;39116;59.332;18.034;2023-08-30T10:20:38;100106.78;;;19.20;100.00
10824;BME280;39116;59.332;18.034;2023-08-30T10:23:01;100119.41;;;19.12;100.00
10824;BME280;39116;59.332;18.034;2023-08-30T10:25:27;100118.47;;;19.13;100.00
10824;BME280;39116;59.332;18.034;2023-08-30T10:27:51;100069.22;;;18.89;100.00
10824;BME280;39116;59.332;18.034;2023-08-30T10:30:16;100108.00;;;19.80;100.00
10824;BME280;39116;59.332;18.034;2023-08-30T10:32:39;100113.13;;;20.06;100.00
10824;BME280;39116;59.332;18.034;2023-08-30T10:35:01;100107.63;;;19.90;100.00
10824;BME280;39116;59.332;18.034;2023-08-30T10:37:26;100115.03;;;20.02;100.00
10824;BME280;39116;59.332;18.034;2023-08-30T10:39:48;100107.81;;;20.48;100.00
10824;BME280;39116;59.332;18.034;2023-08-30T10:42:11;100106.31;;;20.43;100.00
10824;BME280;39116;59.332;18.034;2023-08-30T10:44:34;100104.13;;;20.32;100.00
10824;BME280;39116;59.332;18.034;2023-08-30T10:46:56;100101.47;;;20.52;100.00
10824;BME280;39116;59.332;18.034;2023-08-30T10:49:18;100102.72;;;19.57;100.00
10824;BME280;39116;59.332;18.034;2023-08-30T10:51:41;100108.09;;;19.77;100.00
10824;BME280;39116;59.332;18.034;2023-08-30T10:54:14;100108.97;;;20.00;100.00
10824;BME280;39116;59.332;18.034;2023-08-30T10:56:45;100092.72;;;20.09;100.00
10824;BME280;39116;59.332;18.034;2023-08-30T10:59:16;100106.09;;;20.27;100.00
10824;BME280;39116;59.332;18.034;2023-08-30T11:01:38;100111.25;;;20.30;100.00
10824;BME280;39116;59.332;18.034;2023-08-30T11:04:00;100091.19;;;20.46;100.00
10824;BME280;39116;59.332;18.034;2023-08-30T11:06:23;100090.88;;;20.11;100.00
10824;BME280;39116;59.332;18.034;2023-08-30T11:08:45;100096.44;;;20.05;100.00
10824;BME280;39116;59.332;18.034;2023-08-30T11:11:10;100090.22;;;20.47;100.00
10824;BME280;39116;59.332;18.034;2023-08-30T11:13:35;100104.78;;;20.57;100.00
10824;BME280;39116;59.332;18.034;2023-08-30T11:16:00;100100.63;;;20.72;100.00
10824;BME280;39116;59.332;18.034;2023-08-30T11:18:22;100095.31;;;20.93;100.00
10824;BME280;39116;59.332;18.034;2023-08-30T11:20:44;100014.50;;;19.84;100.00
10824;BME280;39116;59.332;18.034;2023-08-30T11:23:06;100101.09;;;19.98;100.00
10824;BME280;39116;59.332;18.034;2023-08-30T11:25:28;100095.53;;;20.47;100.00
10824;BME280;39116;59.332;18.034;2023-08-30T11:28:01;100102.72;;;19.80;100.00
10824;BME280;39116;59.332;18.034;2023-08-30T11:30:23;100109.75;;;19.34;100.00
10824;BME280;39116;59.332;18.034;2023-08-30T11:32:45;100064.34;;;19.26;100.00
10824;BME280;39116;59.332;18.034;2023-08-30T11:35:08;100096.03;;;19.48;100.00
10824;BME280;39116;59.332;18.034;2023-08-30T11:37:30;100112.09;;;18.44;100.00
10824;BME280;39116;59.332;18.034;2023-08-30T11:39:52;100102.94;;;19.05;100.00
10824;BME280;39116;59.332;18.034;2023-08-30T11:42:14;100114.97;;;18.63;100.00
10824;BME280;39116;59.332;18.034;2023-08-30T11:44:38;100009.97;;;18.75;100.00
10824;BME280;39116;59.332;18.034;2023-08-30T11:47:00;100081.81;;;20.17;100.00
10824;BME280;39116;59.332;18.034;2023-08-30T11:49:22;100086.91;;;19.79;100.00
10824;BME280;39116;59.332;18.034;2023-08-30T11:51:44;100098.06;;;19.18;100.00
10824;BME280;39116;59.332;18.034;2023-08-30T11:54:08;100119.41;;;19.35;100.00
10824;BME280;39116;59.332;18.034;2023-08-30T11:56:30;100101.84;;;19.11;100.00
10824;BME280;39116;59.332;18.034;2023-08-30T11:58:52;100094.88;;;19.10;100.00
10824;BME280;39116;59.332;18.034;2023-08-30T12:01:15;100083.69;;;19.03;100.00
10824;BME280;39116;59.332;18.034;2023-08-30T12:03:39;100091.41;;;18.84;100.00
10824;BME280;39116;59.332;18.034;2023-08-30T12:06:01;100094.69;;;18.91;100.00
10824;BME280;39116;59.332;18.034;2023-08-30T12:08:24;100095.19;;;19.00;100.00